createdAt,value
2019-05-10T00:00:55.864Z,93621.45
2019-05-10T00:03:41.046Z,93618.06
2019-05-10T00:06:26.324Z,93618.39
2019-05-10T00:08:52.739Z,93605.10
2019-05-10T00:11:39.632Z,93622.36
2019-05-10T00:14:11.373Z,93619.39
2019-05-10T00:16:37.901Z,93617.92
2019-05-10T00:19:04.417Z,93622.13
2019-05-10T00:21:30.952Z,93624.48
2019-05-10T00:23:57.471Z,93623.64
2019-05-10T00:26:24.113Z,93622.23
2019-05-10T00:28:50.730Z,93627.03
2019-05-10T00:31:17.261Z,93632.11
2019-05-10T00:33:43.773Z,93635.28
2019-05-10T00:36:10.300Z,93640.71
2019-05-10T00:38:36.822Z,93639.96
2019-05-10T00:41:03.357Z,93634.53
2019-05-10T00:43:29.889Z,93636.48
2019-05-10T00:45:56.528Z,93644.76
2019-05-10T00:48:23.062Z,93644.87
2019-05-10T00:50:49.596Z,93645.39
2019-05-10T00:53:16.134Z,93651.52
2019-05-10T00:55:42.672Z,93652.03
2019-05-10T00:58:09.200Z,93650.13
2019-05-10T01:00:36.139Z,93651.94
2019-05-10T01:03:02.679Z,93651.64
2019-05-10T01:05:32.015Z,93646.33
2019-05-10T01:07:58.548Z,93654.83
2019-05-10T01:10:25.073Z,93659.56
2019-05-10T01:12:51.695Z,93660.05
2019-05-10T01:15:18.524Z,93658.41
2019-05-10T01:17:45.062Z,93657.72
2019-05-10T01:20:12.194Z,93658.23
2019-05-10T01:22:38.735Z,93658.72
2019-05-10T01:25:05.781Z,93663.61
2019-05-10T01:27:32.338Z,93669.66
2019-05-10T01:29:58.863Z,93667.41
2019-05-10T01:32:25.403Z,93674.06
2019-05-10T01:34:51.947Z,93673.42
2019-05-10T01:37:18.510Z,93681.09
2019-05-10T01:39:45.093Z,93674.97
2019-05-10T01:42:11.639Z,93678.32
2019-05-10T01:44:38.168Z,93679.65
2019-05-10T01:47:04.710Z,93678.62
2019-05-10T01:49:31.239Z,93678.20
2019-05-10T01:51:57.891Z,93677.51
2019-05-10T01:54:24.414Z,93680.47
2019-05-10T01:56:50.955Z,93679.23
2019-05-10T01:59:17.478Z,93689.46
2019-05-10T02:01:44.028Z,93686.17
2019-05-10T02:04:10.553Z,93695.08
2019-05-10T02:06:37.081Z,93693.84
2019-05-10T02:09:06.250Z,93696.50
2019-05-10T02:11:32.790Z,93695.38
2019-05-10T02:13:59.330Z,93695.29
2019-05-10T02:16:25.909Z,93694.45
2019-05-10T02:18:52.552Z,93688.34
2019-05-10T02:21:19.086Z,93687.22
2019-05-10T02:23:45.626Z,93696.22
2019-05-10T02:26:12.169Z,93690.58
2019-05-10T02:28:38.707Z,93701.00
2019-05-10T02:31:05.233Z,93710.78
2019-05-10T02:33:31.865Z,93706.80
2019-05-10T02:35:58.391Z,93712.44
2019-05-10T02:38:24.937Z,93710.88
2019-05-10T02:40:51.453Z,93710.84
2019-05-10T02:43:18.099Z,93716.55
2019-05-10T02:45:44.705Z,93714.07
2019-05-10T02:48:11.247Z,93705.50
2019-05-10T02:50:37.778Z,93703.14
2019-05-10T02:53:04.344Z,93700.48
2019-05-10T02:55:33.331Z,93706.73
2019-05-10T02:58:00.114Z,93712.27
2019-05-10T03:00:27.984Z,93704.38
2019-05-10T03:02:54.620Z,93708.06
2019-05-10T03:05:25.847Z,93706.31
2019-05-10T03:07:56.496Z,93699.38
2019-05-10T03:10:24.923Z,93706.49
2019-05-10T03:12:55.277Z,93712.44
2019-05-10T03:15:24.823Z,93711.80
2019-05-10T03:17:54.153Z,93712.44
2019-05-10T03:20:21.097Z,93717.45
2019-05-10T03:22:47.639Z,93710.08
2019-05-10T03:25:14.492Z,93712.14
2019-05-10T03:27:41.105Z,93717.33
2019-05-10T03:30:08.253Z,93713.22
2019-05-10T03:32:34.880Z,93711.59
2019-05-10T03:35:02.310Z,93717.08
2019-05-10T03:37:29.039Z,93716.27
2019-05-10T03:39:55.571Z,93716.88
2019-05-10T03:42:22.694Z,93722.11
2019-05-10T03:44:49.329Z,93721.26
2019-05-10T03:47:15.864Z,93726.70
2019-05-10T03:49:42.493Z,93724.52
2019-05-10T03:52:09.081Z,93732.09
2019-05-10T03:54:35.615Z,93730.51
2019-05-10T03:57:12.881Z,93738.73
2019-05-10T03:59:30.777Z,93739.45
2019-05-10T04:01:57.308Z,93736.02
2019-05-10T04:04:23.836Z,93734.52
2019-05-10T04:06:50.361Z,93731.80
2019-05-10T04:09:16.928Z,93734.23
2019-05-10T04:11:43.567Z,93739.84
2019-05-10T04:14:10.118Z,93746.23
2019-05-10T04:16:36.808Z,93753.80
2019-05-10T04:19:03.359Z,93751.48
2019-05-10T04:21:29.925Z,93748.95
2019-05-10T04:23:56.444Z,93751.02
2019-05-10T04:26:22.991Z,93762.66
2019-05-10T04:28:49.626Z,93765.83
2019-05-10T04:31:16.175Z,93771.44
2019-05-10T04:33:42.699Z,93769.52
2019-05-10T04:36:12.277Z,93772.59
2019-05-10T04:38:37.662Z,93771.17
2019-05-10T04:41:04.198Z,93775.16
2019-05-10T04:43:30.747Z,93765.26
2019-05-10T04:45:57.270Z,93766.97
2019-05-10T04:48:23.799Z,93776.66
2019-05-10T04:50:50.340Z,93779.19
2019-05-10T04:53:16.879Z,93785.99
2019-05-10T04:55:43.414Z,93776.71
2019-05-10T04:58:09.937Z,93777.02
2019-05-10T05:00:36.473Z,93787.61
2019-05-10T05:03:02.993Z,93786.65
2019-05-10T05:05:29.553Z,93787.69
2019-05-10T05:07:56.081Z,93790.42
2019-05-10T05:10:22.638Z,93792.19
2019-05-10T05:12:49.278Z,93797.67
2019-05-10T05:15:15.908Z,93801.59
2019-05-10T05:17:42.451Z,93806.38
2019-05-10T05:20:09.681Z,93799.33
2019-05-10T05:22:36.223Z,93806.21
2019-05-10T05:25:05.671Z,93801.45
2019-05-10T05:27:32.206Z,93796.67
2019-05-10T05:29:58.731Z,93800.95
2019-05-10T05:32:25.261Z,93805.52
2019-05-10T05:34:51.785Z,93797.77
2019-05-10T05:37:18.323Z,93799.56
2019-05-10T05:39:44.853Z,93810.02
2019-05-10T05:42:11.484Z,93805.74
2019-05-10T05:44:38.009Z,93811.58
2019-05-10T05:47:05.024Z,93809.45
2019-05-10T05:49:31.882Z,93815.30
2019-05-10T05:51:58.424Z,93811.30
2019-05-10T05:54:24.996Z,93818.65
2019-05-10T05:56:53.036Z,93819.06
2019-05-10T05:59:23.743Z,93828.45
2019-05-10T06:01:48.385Z,93832.34
2019-05-10T06:04:14.889Z,93830.73
2019-05-10T06:06:41.423Z,93836.08
2019-05-10T06:09:07.947Z,93830.89
2019-05-10T06:11:35.956Z,93836.50
2019-05-10T06:14:10.751Z,93838.46
2019-05-10T06:16:32.521Z,93843.18
2019-05-10T06:18:59.046Z,93847.05
2019-05-10T06:21:26.771Z,93845.35
2019-05-10T06:23:53.406Z,93845.16
2019-05-10T06:26:26.684Z,93851.40
2019-05-10T06:28:59.535Z,93848.80
2019-05-10T06:31:16.908Z,93853.20
2019-05-10T06:33:45.210Z,93859.90
2019-05-10T06:36:12.015Z,93859.23
2019-05-10T06:38:38.550Z,93857.90
2019-05-10T06:41:10.014Z,93862.94
2019-05-10T06:43:33.531Z,93865.06
2019-05-10T06:46:00.069Z,93873.41
2019-05-10T06:48:31.274Z,93871.77
2019-05-10T06:50:55.028Z,93875.78
2019-05-10T06:53:23.354Z,93867.84
2019-05-10T06:55:50.022Z,93876.47
2019-05-10T06:58:16.559Z,93877.77
2019-05-10T07:00:45.106Z,93882.28
2019-05-10T07:03:11.520Z,93887.22
2019-05-10T07:05:38.046Z,93880.87
2019-05-10T07:08:13.974Z,93881.07
2019-05-10T07:10:33.885Z,93889.34
2019-05-10T07:13:03.797Z,93886.19
2019-05-10T07:15:29.159Z,93886.53
2019-05-10T07:17:55.699Z,93891.09
2019-05-10T07:20:23.570Z,93899.52
2019-05-10T07:22:50.669Z,93894.33
2019-05-10T07:25:17.205Z,93892.09
2019-05-10T07:27:44.287Z,93903.05
2019-05-10T07:30:11.075Z,93901.20
2019-05-10T07:32:37.634Z,93899.23
2019-05-10T07:35:05.248Z,93899.86
2019-05-10T07:37:31.885Z,93902.05
2019-05-10T07:39:58.421Z,93901.28
2019-05-10T07:42:24.981Z,93902.83
2019-05-10T07:44:51.517Z,93906.14
2019-05-10T07:47:18.045Z,93912.20
2019-05-10T07:49:44.583Z,93911.02
2019-05-10T07:52:11.117Z,93902.24
2019-05-10T07:54:45.111Z,93908.38
2019-05-10T07:57:06.106Z,93907.44
2019-05-10T07:59:49.454Z,93910.93
2019-05-10T08:02:06.084Z,93918.55
2019-05-10T08:04:33.525Z,93914.83
2019-05-10T08:06:59.759Z,93917.35
2019-05-10T08:09:26.374Z,93922.17
2019-05-10T08:11:54.032Z,93918.09
2019-05-10T08:14:21.338Z,93923.45
2019-05-10T08:16:49.858Z,93921.87
2019-05-10T08:19:17.354Z,93921.09
2019-05-10T08:21:43.903Z,93920.09
2019-05-10T08:24:14.406Z,93921.33
2019-05-10T08:26:42.553Z,93931.59
2019-05-10T08:29:15.147Z,93938.03
2019-05-10T08:31:41.006Z,93941.31
2019-05-10T08:34:07.059Z,93925.02
2019-05-10T08:36:37.276Z,93926.06
2019-05-10T08:39:10.408Z,93937.58
2019-05-10T08:41:33.511Z,93930.54
2019-05-10T08:44:02.412Z,93946.30
2019-05-10T08:46:37.376Z,93948.33
2019-05-10T08:48:56.921Z,93951.40
2019-05-10T08:51:23.453Z,93945.39
2019-05-10T08:53:55.840Z,93948.74
2019-05-10T08:56:23.444Z,93944.28
2019-05-10T08:58:58.950Z,93953.48
2019-05-10T09:01:30.100Z,93949.20
2019-05-10T09:03:59.306Z,93956.39
2019-05-10T09:06:22.431Z,93949.20
2019-05-10T09:08:52.996Z,93953.31
2019-05-10T09:11:17.476Z,93947.33
2019-05-10T09:13:46.017Z,93945.28
2019-05-10T09:16:13.662Z,93950.16
2019-05-10T09:18:46.245Z,93953.78
2019-05-10T09:21:10.798Z,93949.13
2019-05-10T09:23:37.369Z,93949.80
2019-05-10T09:26:10.538Z,93959.39
2019-05-10T09:28:32.342Z,93966.40
2019-05-10T09:31:06.657Z,93974.13
2019-05-10T09:33:27.297Z,93968.73
2019-05-10T09:35:55.098Z,93968.69
2019-05-10T09:38:22.229Z,93961.91
2019-05-10T09:40:53.013Z,93972.59
2019-05-10T09:43:20.976Z,93970.25
2019-05-10T09:45:45.979Z,93970.70
2019-05-10T09:48:12.566Z,93982.31
2019-05-10T09:50:44.436Z,93981.14
2019-05-10T09:53:10.257Z,93982.92
2019-05-10T09:55:36.961Z,93987.16
2019-05-10T09:58:03.704Z,93984.80
2019-05-10T10:00:37.681Z,93990.84
2019-05-10T10:03:03.822Z,93989.32
2019-05-10T10:05:30.353Z,93988.67
2019-05-10T10:07:58.667Z,93987.91
2019-05-10T10:10:31.702Z,93984.81
2019-05-10T10:12:58.412Z,93996.86
2019-05-10T10:15:29.805Z,94004.63
2019-05-10T10:17:50.749Z,94000.98
2019-05-10T10:20:18.093Z,93996.53
2019-05-10T10:22:51.648Z,93996.97
2019-05-10T10:25:13.344Z,93998.30
2019-05-10T10:27:40.003Z,93990.53
2019-05-10T10:30:12.632Z,93989.48
2019-05-10T10:32:37.577Z,93979.73
2019-05-10T10:35:07.633Z,93977.59
2019-05-10T10:37:33.765Z,93975.16
2019-05-10T10:40:05.167Z,93982.79
2019-05-10T10:42:29.016Z,93973.39
2019-05-10T10:44:55.765Z,93974.15
2019-05-10T10:47:22.844Z,93973.80
2019-05-10T10:49:50.772Z,93972.56
2019-05-10T10:52:17.355Z,93970.12
2019-05-10T10:54:43.833Z,93977.88
2019-05-10T10:57:10.375Z,93974.06
2019-05-10T10:59:37.439Z,93977.13
2019-05-10T11:02:30.985Z,93998.27
2019-05-10T11:04:32.777Z,93999.02
2019-05-10T11:07:09.907Z,93994.50
2019-05-10T11:09:27.745Z,93996.49
2019-05-10T11:11:54.385Z,93998.23
2019-05-10T11:14:20.910Z,93993.09
2019-05-10T11:16:55.386Z,93993.48
2019-05-10T11:19:15.977Z,93995.68
2019-05-10T11:21:42.516Z,93992.08
2019-05-10T11:24:10.480Z,93997.13
2019-05-10T11:26:37.489Z,93990.24
2019-05-10T11:29:04.122Z,93994.94
2019-05-10T11:31:31.299Z,93983.68
2019-05-10T11:34:00.948Z,93979.89
2019-05-10T11:36:26.429Z,93988.80
2019-05-10T11:38:58.598Z,94003.13
2019-05-10T11:41:24.518Z,93990.72
2019-05-10T11:43:49.925Z,93990.44
2019-05-10T11:46:16.520Z,93990.69
2019-05-10T11:48:43.067Z,93981.88
2019-05-10T11:51:12.324Z,93985.28
2019-05-10T11:53:38.064Z,93983.14
2019-05-10T11:56:07.956Z,93988.74
2019-05-10T11:58:37.811Z,93996.36
2019-05-10T12:01:12.850Z,93992.84
2019-05-10T12:03:31.815Z,93993.08
2019-05-10T12:06:06.167Z,94001.03
2019-05-10T12:08:27.052Z,94008.27
2019-05-10T12:11:07.614Z,94006.24
2019-05-10T12:13:24.920Z,93999.47
2019-05-10T12:15:52.045Z,93998.83
2019-05-10T12:18:26.309Z,94004.50
2019-05-10T12:20:56.603Z,94008.36
2019-05-10T12:23:22.648Z,94013.47
2019-05-10T12:25:58.795Z,94007.06
2019-05-10T12:28:15.368Z,94011.76
2019-05-10T12:30:41.929Z,94012.72
2019-05-10T12:33:10.834Z,94014.50
2019-05-10T12:35:41.860Z,94017.31
2019-05-10T12:38:05.448Z,94014.62
2019-05-10T12:40:31.972Z,94021.89
2019-05-10T12:43:00.573Z,94022.41
2019-05-10T12:45:27.265Z,94023.34
2019-05-10T12:47:53.852Z,94026.69
2019-05-10T12:50:20.936Z,94023.27
2019-05-10T12:52:53.133Z,94030.78
2019-05-10T12:55:16.164Z,94027.83
2019-05-10T12:57:43.624Z,94030.08
2019-05-10T13:00:13.209Z,94030.09
2019-05-10T13:02:39.052Z,94036.34
2019-05-10T13:05:06.075Z,94048.89
2019-05-10T13:07:36.602Z,94053.66
2019-05-10T13:10:03.482Z,94054.39
2019-05-10T13:12:29.761Z,94050.16
2019-05-10T13:14:56.359Z,94043.78
2019-05-10T13:17:22.924Z,94045.00
2019-05-10T13:19:52.905Z,94046.09
2019-05-10T13:22:19.231Z,94042.92
2019-05-10T13:24:45.767Z,94040.95
2019-05-10T13:27:12.402Z,94048.52
2019-05-10T13:29:40.580Z,94044.17
2019-05-10T13:32:07.446Z,94038.11
2019-05-10T13:34:34.012Z,94043.41
2019-05-10T13:37:00.549Z,94030.95
2019-05-10T13:39:27.688Z,94037.97
2019-05-10T13:41:57.088Z,94036.36
2019-05-10T13:44:22.829Z,94037.09
2019-05-10T13:46:49.372Z,94031.38
2019-05-10T13:49:15.990Z,94024.13
2019-05-10T13:51:42.524Z,94024.05
2019-05-10T13:54:09.082Z,94022.11
2019-05-10T13:56:35.774Z,94029.02
2019-05-10T13:59:13.942Z,94032.57
2019-05-10T14:01:31.034Z,94027.91
2019-05-10T14:04:01.037Z,94019.61
2019-05-10T14:06:26.208Z,94024.59
2019-05-10T14:08:52.739Z,94020.31
2019-05-10T14:11:19.377Z,94032.86
2019-05-10T14:13:45.909Z,94015.77
2019-05-10T14:16:18.583Z,94015.41
2019-05-10T14:18:41.107Z,94008.62
2019-05-10T14:21:07.880Z,94016.58
2019-05-10T14:23:35.680Z,94017.55
2019-05-10T14:26:03.194Z,94021.00
2019-05-10T14:28:29.808Z,94020.09
2019-05-10T14:30:58.555Z,94008.78
2019-05-10T14:33:24.882Z,94012.16
2019-05-10T14:35:55.025Z,94015.09
2019-05-10T14:38:22.821Z,94010.77
2019-05-10T14:40:48.381Z,94009.34
2019-05-10T14:43:15.009Z,94015.44
2019-05-10T14:45:41.547Z,94005.13
2019-05-10T14:48:08.076Z,94019.69
2019-05-10T14:50:34.649Z,94012.94
2019-05-10T14:53:01.183Z,94004.84
2019-05-10T14:55:33.977Z,94006.61
2019-05-10T14:57:56.242Z,94011.24
2019-05-10T15:00:22.819Z,94010.20
2019-05-10T15:02:49.412Z,94011.57
2019-05-10T15:05:18.074Z,94011.45
2019-05-10T15:07:44.495Z,94012.91
2019-05-10T15:10:11.747Z,94025.16
2019-05-10T15:12:38.272Z,94019.58
2019-05-10T15:15:05.517Z,94021.96
2019-05-10T15:17:32.045Z,94033.59
2019-05-10T15:20:00.002Z,94024.98
2019-05-10T15:22:26.819Z,94032.63
2019-05-10T15:24:53.473Z,94028.53
2019-05-10T15:27:21.728Z,94027.18
2019-05-10T15:29:48.456Z,94017.80
2019-05-10T15:32:14.979Z,94026.15
2019-05-10T15:34:41.587Z,94023.83
2019-05-10T15:37:09.490Z,94027.02
2019-05-10T15:39:37.090Z,94034.05
2019-05-10T15:42:03.805Z,94019.58
2019-05-10T15:44:31.752Z,94012.45
2019-05-10T15:46:58.779Z,93996.31
2019-05-10T15:49:25.334Z,93994.53
2019-05-10T15:51:56.911Z,93987.11
2019-05-10T15:54:20.323Z,93990.25
2019-05-10T15:56:46.924Z,93999.76
2019-05-10T15:59:19.227Z,93998.98
2019-05-10T16:01:45.200Z,93993.63
2019-05-10T16:04:10.300Z,94004.73
2019-05-10T16:06:37.753Z,94002.15
2019-05-10T16:09:17.183Z,94013.39
2019-05-10T16:11:34.915Z,94003.66
2019-05-10T16:14:03.781Z,94007.20
2019-05-10T16:16:36.803Z,94009.61
2019-05-10T16:18:58.749Z,94013.62
2019-05-10T16:21:25.367Z,94016.53
2019-05-10T16:23:51.903Z,94019.13
2019-05-10T16:26:22.956Z,94009.05
2019-05-10T16:28:47.026Z,94007.62
2019-05-10T16:31:13.565Z,94005.26
2019-05-10T16:33:40.096Z,94001.25
2019-05-10T16:36:08.397Z,94003.94
2019-05-10T16:38:35.089Z,94003.57
2019-05-10T16:41:01.674Z,94007.78
2019-05-10T16:43:28.264Z,94008.38
2019-05-10T16:45:54.872Z,94020.50
2019-05-10T16:48:21.426Z,94023.45
2019-05-10T16:50:47.979Z,94030.98
2019-05-10T16:53:14.602Z,94036.62
2019-05-10T16:55:42.983Z,94039.33
2019-05-10T16:58:15.026Z,94037.09
2019-05-10T17:00:40.843Z,94034.45
2019-05-10T17:03:06.552Z,94025.08
2019-05-10T17:05:33.071Z,94022.06
2019-05-10T17:08:00.347Z,94015.98
2019-05-10T17:10:32.494Z,94008.81
2019-05-10T17:12:59.617Z,94001.28
2019-05-10T17:15:23.832Z,93993.27
2019-05-10T17:17:50.369Z,94003.30
2019-05-10T17:20:17.006Z,94009.76
2019-05-10T17:22:43.595Z,94009.77
2019-05-10T17:25:10.216Z,94006.47
2019-05-10T17:27:36.754Z,94002.30
2019-05-10T17:30:04.987Z,94005.43
2019-05-10T17:32:31.521Z,94002.44
2019-05-10T17:34:59.228Z,94006.61
2019-05-10T17:37:29.792Z,93998.06
2019-05-10T17:39:55.079Z,94006.54
2019-05-10T17:42:21.620Z,94015.95
2019-05-10T17:44:48.162Z,94012.56
2019-05-10T17:47:14.734Z,94015.77
2019-05-10T17:49:41.294Z,94017.96
2019-05-10T17:52:08.009Z,94011.14
2019-05-10T17:54:39.268Z,94007.31
2019-05-10T17:57:03.071Z,94010.37
2019-05-10T17:59:29.639Z,94008.92
2019-05-10T18:01:56.183Z,94018.23
2019-05-10T18:04:22.845Z,94012.27
2019-05-10T18:06:49.585Z,94011.83
2019-05-10T18:09:18.148Z,94008.70
2019-05-10T18:11:45.022Z,94004.52
2019-05-10T18:14:12.612Z,93999.61
2019-05-10T18:16:41.875Z,93994.12
2019-05-10T18:19:09.044Z,93999.23
2019-05-10T18:21:35.747Z,93996.85
2019-05-10T18:24:02.443Z,94003.75
2019-05-10T18:26:29.082Z,94010.55
2019-05-10T18:28:57.491Z,94008.11
2019-05-10T18:31:24.018Z,94012.23
2019-05-10T18:33:54.492Z,94014.38
2019-05-10T18:36:19.007Z,94017.64
2019-05-10T18:38:45.616Z,94019.50
2019-05-10T18:41:12.150Z,94026.95
2019-05-10T18:43:40.772Z,94016.53
2019-05-10T18:46:07.986Z,94016.63
2019-05-10T18:48:34.625Z,94008.34
2019-05-10T18:51:01.158Z,94013.12
2019-05-10T18:53:27.738Z,94022.66
2019-05-10T18:55:54.417Z,94019.48
2019-05-10T18:58:23.329Z,94022.98
2019-05-10T19:00:49.401Z,94025.55
2019-05-10T19:03:15.935Z,94028.84
2019-05-10T19:05:42.559Z,94026.34
2019-05-10T19:08:09.089Z,94027.67
2019-05-10T19:10:35.685Z,94017.30
2019-05-10T19:13:05.071Z,94013.25
2019-05-10T19:15:30.709Z,94015.67
2019-05-10T19:17:57.237Z,94018.53
2019-05-10T19:20:23.879Z,94016.70
2019-05-10T19:22:50.424Z,94020.91
2019-05-10T19:25:16.965Z,94018.53
2019-05-10T19:27:44.147Z,94014.63
2019-05-10T19:30:12.949Z,94014.98
2019-05-10T19:32:39.484Z,94015.60
2019-05-10T19:35:06.216Z,94013.04
2019-05-10T19:37:34.444Z,94014.98
2019-05-10T19:40:01.701Z,94035.00
2019-05-10T19:42:31.555Z,94028.09
2019-05-10T19:44:56.878Z,94031.98
2019-05-10T19:47:23.463Z,94033.64
2019-05-10T19:49:51.553Z,94033.97
2019-05-10T19:52:21.302Z,94023.52
2019-05-10T19:54:46.928Z,94024.31
2019-05-10T19:57:16.442Z,94028.20
2019-05-10T19:59:43.901Z,94027.19
2019-05-10T20:02:10.567Z,94031.71
2019-05-10T20:04:37.150Z,94028.30
2019-05-10T20:07:03.695Z,94024.81
2019-05-10T20:09:30.508Z,94024.80
2019-05-10T20:11:57.057Z,94022.34
2019-05-10T20:14:23.717Z,94027.39
2019-05-10T20:16:53.155Z,94032.62
2019-05-10T20:19:18.961Z,94030.77
2019-05-10T20:21:45.501Z,94022.64
2019-05-10T20:24:12.108Z,94030.14
2019-05-10T20:26:38.645Z,94024.56
2019-05-10T20:29:05.285Z,94017.27
2019-05-10T20:31:31.890Z,94015.91
2019-05-10T20:33:58.517Z,94009.34
2019-05-10T20:36:25.111Z,94003.28
2019-05-10T20:38:51.647Z,94007.92
2019-05-10T20:41:18.180Z,94015.84
2019-05-10T20:43:44.702Z,94009.58
2019-05-10T20:46:11.669Z,94005.87
2019-05-10T20:48:38.262Z,94007.01
2019-05-10T20:51:04.802Z,94007.41
2019-05-10T20:53:31.320Z,94001.55
2019-05-10T20:55:58.457Z,94000.02
2019-05-10T20:58:24.976Z,94008.54
2019-05-10T21:00:51.559Z,94013.27
2019-05-10T21:03:18.089Z,94010.64
2019-05-10T21:05:44.619Z,94004.19
2019-05-10T21:08:17.028Z,94000.17
2019-05-10T21:10:39.676Z,93993.21
2019-05-10T21:13:06.211Z,93995.06
2019-05-10T21:15:32.742Z,94001.22
2019-05-10T21:17:59.387Z,93991.28
2019-05-10T21:20:26.070Z,93971.66
2019-05-10T21:22:52.785Z,93958.22
2019-05-10T21:25:19.407Z,93952.13
2019-05-10T21:27:46.074Z,93959.14
2019-05-10T21:30:13.033Z,93960.36
2019-05-10T21:32:39.562Z,93955.71
2019-05-10T21:35:06.202Z,93959.64
2019-05-10T21:37:32.832Z,93967.32
2019-05-10T21:39:59.425Z,93964.48
2019-05-10T21:42:25.960Z,93953.27
2019-05-10T21:44:52.515Z,93963.94
2019-05-10T21:47:19.097Z,93967.96
2019-05-10T21:49:45.680Z,93949.17
2019-05-10T21:52:12.278Z,93944.64
2019-05-10T21:54:38.842Z,93946.59
2019-05-10T21:57:05.394Z,93951.33
2019-05-10T21:59:31.970Z,93960.89
2019-05-10T22:01:58.521Z,93957.72
2019-05-10T22:04:25.092Z,93959.25
2019-05-10T22:06:51.775Z,93965.20
2019-05-10T22:09:18.343Z,93973.19
2019-05-10T22:11:44.921Z,93974.64
2019-05-10T22:14:11.495Z,93965.20
2019-05-10T22:16:38.062Z,93960.17
2019-05-10T22:19:04.645Z,93953.80
2019-05-10T22:21:31.320Z,93960.77
2019-05-10T22:23:57.881Z,93954.84
2019-05-10T22:26:24.529Z,93952.88
2019-05-10T22:28:51.131Z,93952.36
2019-05-10T22:31:17.792Z,93953.70
2019-05-10T22:33:44.367Z,93952.25
2019-05-10T22:36:10.967Z,93948.77
2019-05-10T22:38:37.575Z,93932.77
2019-05-10T22:41:04.157Z,93932.44
2019-05-10T22:43:30.787Z,93933.17
2019-05-10T22:45:57.349Z,93935.22
2019-05-10T22:48:23.930Z,93927.73
2019-05-10T22:50:50.518Z,93914.93
2019-05-10T22:53:17.110Z,93899.95
2019-05-10T22:55:43.655Z,93901.39
2019-05-10T22:58:10.279Z,93891.24
2019-05-10T23:00:36.900Z,93891.13
2019-05-10T23:03:04.091Z,93896.64
2019-05-10T23:05:30.643Z,93887.55
2019-05-10T23:07:57.216Z,93886.52
2019-05-10T23:10:23.775Z,93883.25
2019-05-10T23:12:50.359Z,93874.63
2019-05-10T23:15:16.913Z,93874.73
2019-05-10T23:17:43.502Z,93852.91
2019-05-10T23:20:10.301Z,93851.06
2019-05-10T23:22:36.871Z,93850.32
2019-05-10T23:25:06.043Z,93851.58
2019-05-10T23:27:32.618Z,93844.59
2019-05-10T23:29:59.189Z,93840.81
2019-05-10T23:32:25.773Z,93837.52
2019-05-10T23:34:52.336Z,93830.16
2019-05-10T23:37:18.908Z,93834.86
2019-05-10T23:39:45.475Z,93834.78
2019-05-10T23:42:12.095Z,93829.45
2019-05-10T23:44:38.665Z,93828.31
2019-05-10T23:47:05.245Z,93822.80
2019-05-10T23:49:31.826Z,93820.42
2019-05-10T23:51:58.393Z,93806.70
2019-05-10T23:54:24.967Z,93804.64
2019-05-10T23:56:51.600Z,93806.59
2019-05-10T23:59:18.178Z,93797.78
